Terminal Aerodrome Forecast
Issued by NWS Cleveland, OH

Home | Current Version | Previous Version | Graphics & Text | Print | Product List | Glossary On
Versions: 1 2 3 4 5 6 7 8 9 10 11 12 13 14 15 16 17 18 19 20 21 22 23 24 25 26 27 28 29 30 31 32 33 34
000
FTUS41 KCLE 210800 AAA
TAFCLE
TAF AMD
KCLE 210853Z 2109/2212 23004KT 6SM BR VCSH SCT040 BKN100
     FM211100 23004KT 4SM BR BKN035 OVC100
     FM211500 24008KT P6SM SCT035 BKN120
      TEMPO 2121/2123 3SM -TSRA BR BKN025CB OVC080
     FM220500 16006KT 5SM BR BKN035 OVC100 PROB30 2207/2212 2SM TSRA
      BKN015 OVC025CB=

USA.gov is the U.S. government's official web portal to all federal, state and local government web resources and services.